Time;durP1;ratioP1;P1;durP2;ratioP2;P2;SDS_P1;SDS_P2;PMS_P1;PMS_P2;Temp;Humidity;BMP_temperature;BMP_pressure;BME280_temperature;BME280_humidity;BME280_pressure;Samples;Min_cycle;Max_cycle;Signal;HPM_P1;HPM_P2
2022/02/10 00:22:01;;;;;;;33.40;18.35;;;;;;;3.10;100.00;100435.38;1807334;78;21448;-61
2022/02/10 00:35:28;;;;;;;39.60;21.10;;;;;;;6.91;100.00;100411.20;1820935;78;21021;-62
2022/02/10 00:37:59;;;;;;;35.05;18.60;;;;;;;6.67;100.00;100411.91;1820074;78;21046;-62
2022/02/10 00:40:32;;;;;;;32.78;16.27;;;;;;;6.65;100.00;100410.75;1819878;78;21599;-66
2022/02/10 00:43:00;;;;;;;32.30;16.80;;;;;;;7.01;100.00;100406.72;1820459;78;21164;-63
2022/02/10 00:45:30;;;;;;;37.67;19.85;;;;;;;6.83;100.00;100415.87;1820950;78;20924;-61
2022/02/10 00:48:01;;;;;;;33.90;17.77;;;;;;;6.65;100.00;100414.63;1820155;78;20924;-62
2022/02/10 00:50:27;;;;;;;32.23;16.62;;;;;;;6.43;100.00;100418.54;1819163;78;21077;-61
2022/02/10 00:53:02;;;;;;;32.33;18.98;;;;;;;6.68;100.00;100420.80;1819978;78;21093;-61
2022/02/10 00:55:29;;;;;;;33.28;18.07;;;;;;;6.32;100.00;100415.71;1820179;78;21295;-62
2022/02/10 00:57:54;;;;;;;32.10;16.42;;;;;;;6.27;100.00;100415.84;1810299;78;20920;-75
2022/02/10 01:11:16;;;;;;;32.53;18.20;;;;;;;6.66;100.00;100419.33;1808481;79;20854;-63
2022/02/10 01:30:12;;;;;;;25.85;13.43;;;;;;;7.16;100.00;100414.69;1669996;85;21495;-61
2022/02/10 01:32:43;;;;;;;26.82;14.35;;;;;;;6.98;100.00;100423.39;1670599;84;21014;-61
2022/02/10 01:35:11;;;;;;;26.23;14.60;;;;;;;6.90;100.00;100419.47;1658536;84;21831;-61
2022/02/10 01:37:39;;;;;;;25.10;14.80;;;;;;;6.50;100.00;100423.45;1670216;85;20939;-77
2022/02/10 01:40:13;;;;;;;22.27;13.00;;;;;;;6.66;100.00;100421.91;1670034;85;21492;-62
2022/02/10 02:04:22;;;;;;;18.65;11.05;;;;;;;7.07;100.00;100404.30;1671219;83;20934;-76
2022/02/10 02:06:51;;;;;;;17.42;10.40;;;;;;;7.25;100.00;100405.98;1658128;86;21598;-61
2022/02/10 02:09:19;;;;;;;18.32;11.43;;;;;;;7.30;100.00;100408.91;1670515;85;20982;-61
2022/02/10 02:11:52;;;;;;;15.13;9.98;;;;;;;6.88;100.00;100418.80;1658372;86;20951;-61
2022/02/10 02:14:22;;;;;;;20.40;12.07;;;;;;;7.09;100.00;100413.23;1648501;86;21156;-61
2022/02/10 02:17:00;;;;;;;21.70;11.83;;;;;;;6.82;100.00;100421.53;1663114;85;20942;-63
2022/02/10 02:19:26;;;;;;;18.15;11.75;;;;;;;6.83;100.00;100424.45;1671368;83;20946;-62
2022/02/10 02:22:05;;;;;;;17.95;11.18;;;;;;;6.58;100.00;100431.26;1658112;86;21040;-71
2022/02/10 02:24:32;;;;;;;19.05;11.53;;;;;;;6.42;100.00;100436.34;1662345;84;21018;-60
2022/02/10 02:27:02;;;;;;;20.82;12.50;;;;;;;6.49;100.00;100442.55;1658156;86;21831;-63
2022/02/10 02:29:42;;;;;;;20.00;11.28;;;;;;;6.77;100.00;100448.86;1671549;83;21428;-62
2022/02/10 02:32:02;;;;;;;17.50;11.38;;;;;;;7.07;100.00;100447.06;1657605;85;21453;-62
2022/02/10 02:34:54;;;;;;;15.45;10.18;;;;;;;7.03;100.00;100456.61;1670094;83;21142;-63
2022/02/10 02:37:23;;;;;;;18.77;10.10;;;;;;;6.98;100.00;100450.59;1661295;84;21532;-61
2022/02/10 03:06:35;;;;;;;12.43;8.03;;;;;;;7.50;100.00;100451.77;1657569;86;21193;-63
2022/02/10 03:09:07;;;;;;;12.88;8.15;;;;;;;7.30;100.00;100453.80;1670506;83;21775;-63
2022/02/10 03:11:29;;;;;;;11.55;7.65;;;;;;;7.24;100.00;100455.73;1658089;86;21003;-61
2022/02/10 03:14:01;;;;;;;11.40;7.70;;;;;;;7.10;100.00;100463.29;1670952;83;20971;-74
2022/02/10 03:16:55;;;;;;;10.95;7.15;;;;;;;7.25;100.00;100453.95;1658227;86;21070;-63
2022/02/10 04:05:52;;;;;;;10.23;6.42;;;;;;;5.41;100.00;100476.28;1597080;89;21149;-64
2022/02/10 04:08:11;;;;;;;9.48;6.03;;;;;;;5.13;100.00;100483.55;1593078;89;21636;-73
2022/02/10 04:16:09;;;;;;;8.03;5.10;;;;;;;5.18;100.00;100488.28;1596936;89;20992;-66
2022/02/10 04:29:14;;;;;;;8.08;4.90;;;;;;;4.76;100.00;100483.52;1596420;89;21131;-63
2022/02/10 04:56:09;;;;;;;7.20;4.08;;;;;;;5.25;100.00;100497.09;1597045;89;22314;-65
2022/02/10 05:04:11;;;;;;;6.78;3.52;;;;;;;6.92;100.00;100506.92;1603978;89;21096;-68
2022/02/10 05:16:57;;;;;;;8.30;5.28;;;;;;;6.15;100.00;100507.65;1620439;88;20980;-70
2022/02/10 05:24:41;;;;;;;8.83;4.87;;;;;;;7.04;100.00;100505.69;1635742;86;21081;-68
2022/02/10 05:37:47;;;;;;;7.47;4.75;;;;;;;7.58;100.00;100488.59;1617986;87;21078;-65
2022/02/10 05:40:18;;;;;;;7.87;4.45;;;;;;;7.57;100.00;100476.58;1604540;89;21605;-75
2022/02/10 05:45:24;;;;;;;8.25;4.55;;;;;;;7.53;100.00;100486.45;1621014;87;21149;-77
2022/02/10 05:48:02;;;;;;;10.15;4.62;;;;;;;7.65;100.00;100500.43;1623375;86;20991;-65
2022/02/10 05:55:38;;;;;;;7.05;3.52;;;;;;;7.11;100.00;100496.82;1621749;87;21075;-66
2022/02/10 06:40:39;;;;;;;;;;;;;;;11.41;79.30;100479.48;1635108;87;21248;-73
2022/02/10 06:52:22;;;;;;;7.55;4.12;;;;;;;11.89;61.58;100479.84;1661109;86;21103;-62
2022/02/10 07:02:56;;;;;;;7.83;3.87;;;;;;;12.34;59.41;100486.95;1660653;84;21015;-72
2022/02/10 07:10:30;;;;;;;8.25;3.98;;;;;;;12.77;55.32;100475.11;1660000;86;21057;-74
2022/02/10 07:16:09;;;;;;;7.80;4.10;;;;;;;12.83;53.72;100483.98;1661482;86;20956;-64
2022/02/10 07:58:46;;;;;;;9.85;5.53;;;;;;;11.36;57.66;100442.66;1661073;85;22240;-61
2022/02/10 08:56:02;;;;;;;14.07;7.90;;;;;;;11.52;64.64;100423.37;1623119;88;21100;-63
2022/02/10 09:06:18;;;;;;;12.30;6.28;;;;;;;11.31;60.51;100407.67;1627150;88;21147;-68
2022/02/10 09:09:45;;;;;;;13.05;6.83;;;;;;;11.02;60.52;100410.64;1633035;86;21504;-64
2022/02/10 09:14:17;;;;;;;19.82;6.97;;;;;;;11.13;59.61;100389.80;1627230;87;21096;-78
2022/02/10 09:22:28;;;;;;;13.80;7.42;;;;;;;11.36;56.59;100372.19;1630806;86;20995;-71
2022/02/10 10:02:55;;;;;;;15.13;6.42;;;;;;;11.70;53.03;100334.15;1667559;83;21016;-62
2022/02/10 10:08:34;;;;;;;10.88;6.20;;;;;;;11.45;54.36;100317.58;1674845;84;21556;-61
2022/02/10 10:16:06;;;;;;;21.27;8.10;;;;;;;11.35;56.16;100304.03;1655685;86;21012;-64
2022/02/10 10:49:49;;;;;;;9.73;5.00;;;;;;;10.01;82.37;100300.50;1664623;84;21082;-64
2022/02/10 10:57:11;;;;;;;19.00;14.33;;;;;;;10.08;84.25;100298.30;1661728;84;21094;-76
2022/02/10 10:59:39;;;;;;;35.52;27.13;;;;;;;10.29;82.40;100302.02;1666757;84;21094;-65
2022/02/10 11:39:29;;;;;;;16.20;7.20;;;;;;;10.89;78.95;100271.77;1624830;86;20900;-74
2022/02/10 11:45:42;;;;;;;11.43;6.33;;;;;;;11.10;77.00;100261.86;1618409;86;21549;-65
2022/02/10 13:02:51;;;;;;;17.82;9.93;;;;;;;11.73;71.05;100301.64;1625805;88;21019;-73
2022/02/10 13:48:48;;;;;;;24.23;14.45;;;;;;;11.29;90.46;100330.89;1667024;84;21693;-62
2022/02/10 14:15:07;;;;;;;23.18;12.33;;;;;;;11.80;84.34;100390.80;1664238;84;21312;-63
2022/02/10 14:17:32;;;;;;;20.25;12.25;;;;;;;11.79;84.64;100387.88;1654535;84;21075;-61
2022/02/10 14:20:13;;;;;;;26.37;14.15;;;;;;;12.08;82.09;100388.23;1656966;85;21576;-61
2022/02/10 14:27:49;;;;;;;27.65;16.97;;;;;;;10.88;97.60;100407.58;1660464;85;21108;-75
2022/02/10 14:30:16;;;;;;;23.73;14.28;;;;;;;10.93;100.00;100407.33;1657761;84;21125;-71
2022/02/10 14:32:45;;;;;;;25.88;15.70;;;;;;;11.25;98.54;100405.78;1659324;84;21092;-62
2022/02/10 14:35:31;;;;;;;22.07;12.80;;;;;;;10.70;100.00;100412.64;1659069;86;21564;-62
2022/02/10 14:41:09;;;;;;;21.68;12.82;;;;;;;10.64;100.00;100419.06;1654541;84;21116;-63
2022/02/10 15:11:21;;;;;;;15.60;10.58;;;;;;;11.28;100.00;100412.75;1673208;84;21043;-63
2022/02/10 15:46:30;;;;;;;19.42;11.90;;;;;;;9.98;100.00;100443.58;1660328;86;21031;-66
2022/02/10 16:17:43;;;;;;;15.03;10.68;;;;;;;11.19;100.00;100468.66;1662976;84;21022;-65
2022/02/10 16:20:17;;;;;;;15.50;10.50;;;;;;;11.61;100.00;100470.56;1663066;84;21031;-67
2022/02/10 16:22:49;;;;;;;19.45;12.35;;;;;;;11.23;100.00;100484.77;1633516;86;21243;-65
2022/02/10 16:25:10;;;;;;;20.23;13.20;;;;;;;11.19;100.00;100483.02;1611266;87;21058;-71
2022/02/10 16:27:37;;;;;;;17.57;11.97;;;;;;;11.93;100.00;100481.55;1607584;87;21123;-67
2022/02/10 16:30:15;;;;;;;15.65;11.10;;;;;;;12.18;96.66;100493.75;1623739;86;20980;-66
2022/02/10 16:32:40;;;;;;;17.17;11.85;;;;;;;11.48;100.00;100491.31;1651370;85;21400;-64
2022/02/10 16:35:08;;;;;;;18.35;11.85;;;;;;;11.26;100.00;100495.65;1662790;84;21065;-69
2022/02/10 16:37:36;;;;;;;19.48;13.38;;;;;;;11.52;100.00;100500.89;1672539;83;21130;-67
2022/02/10 16:40:04;;;;;;;21.80;14.75;;;;;;;11.62;100.00;100499.58;1624515;86;20975;-76
2022/02/10 16:42:31;;;;;;;19.65;13.35;;;;;;;11.47;100.00;100500.61;1660665;84;21016;-66
2022/02/10 16:44:58;;;;;;;19.90;13.28;;;;;;;11.41;100.00;100504.27;1669365;84;21008;-65
2022/02/10 16:47:25;;;;;;;21.60;14.68;;;;;;;11.36;100.00;100503.98;1674097;84;21813;-66
2022/02/10 16:49:53;;;;;;;17.07;11.70;;;;;;;11.60;100.00;100511.22;1656585;84;21082;-65
2022/02/10 16:52:24;;;;;;;15.68;11.05;;;;;;;11.98;99.62;100495.38;1658082;85;21081;-68
2022/02/10 16:54:51;;;;;;;21.17;14.20;;;;;;;11.64;100.00;100505.95;1627487;88;21101;-64
2022/02/10 16:59:53;;;;;;;20.25;14.20;;;;;;;11.72;98.22;100494.58;1629752;86;21388;-65
2022/02/10 17:05:22;;;;;;;17.30;12.43;;;;;;;11.87;93.87;100499.29;1663048;84;21097;-66
2022/02/10 17:29:25;;;;;;;17.98;11.93;;;;;;;10.97;100.00;100508.20;1673139;84;21142;-68
2022/02/10 17:31:46;;;;;;;22.17;14.43;;;;;;;10.79;100.00;100509.83;1627881;86;21129;-67
2022/02/10 17:36:46;;;;;;;21.60;14.00;;;;;;;10.81;100.00;100501.85;1666838;84;21077;-71
2022/02/10 17:42:24;;;;;;;18.40;12.45;;;;;;;10.95;100.00;100509.69;1670208;83;21057;-66
2022/02/10 17:52:45;;;;;;;16.67;11.65;;;;;;;10.77;100.00;100522.75;1637543;86;22371;-66
2022/02/10 17:55:09;;;;;;;15.55;11.20;;;;;;;10.90;100.00;100522.44;1611510;87;21023;-67
2022/02/10 17:57:35;;;;;;;15.88;11.48;;;;;;;10.70;100.00;100520.84;1677830;84;21004;-73
2022/02/10 18:00:05;;;;;;;21.23;13.43;;;;;;;10.78;100.00;100523.87;1670596;84;21075;-72
2022/02/10 18:02:33;;;;;;;;;;;;;;;11.27;100.00;100520.75;1675007;83;21250;-67
2022/02/10 18:05:02;;;;;;;17.82;12.43;;;;;;;11.29;98.47;100518.78;1673445;84;21106;-73
2022/02/10 18:07:28;;;;;;;20.32;13.03;;;;;;;11.12;99.91;100517.33;1664142;84;21750;-66
2022/02/10 18:15:18;;;;;;;19.20;13.15;;;;;;;10.78;100.00;100521.76;1617974;87;21122;-66
2022/02/10 18:17:41;;;;;;;19.30;13.43;;;;;;;10.46;100.00;100523.67;1618624;86;21170;-73
2022/02/10 18:20:11;;;;;;;20.32;14.33;;;;;;;11.31;100.00;100520.70;1623394;85;21058;-72
2022/02/10 18:28:24;;;;;;;20.90;15.05;;;;;;;11.09;99.00;100526.81;1611975;87;21111;-69
2022/02/10 18:33:29;;;;;;;25.30;17.65;;;;;;;11.03;97.48;100536.69;1671182;84;21437;-66
2022/02/10 19:10:35;;;;;;;28.65;20.45;;;;;;;11.54;93.39;100545.88;1633313;86;25134;-66
2022/02/10 19:13:02;;;;;;;32.00;21.40;;;;;;;10.96;100.00;100559.56;1590139;88;21103;-73
2022/02/10 19:15:35;;;;;;;29.67;21.15;;;;;;;11.02;100.00;100558.02;1617148;87;20976;-68
2022/02/10 19:18:07;;;;;;;32.70;21.60;;;;;;;10.31;100.00;100554.09;1616192;86;21103;-68
2022/02/10 19:20:34;;;;;;;;;;;;;;;10.56;100.00;100550.29;1623975;87;21153;-68
2022/02/10 19:23:05;;;;;;;27.40;18.48;;;;;;;10.87;100.00;100556.72;1620357;87;21111;-69
2022/02/10 19:25:34;;;;;;;25.50;17.40;;;;;;;11.65;96.70;100546.22;1629478;86;21089;-69
2022/02/10 19:28:01;;;;;;;24.02;17.10;;;;;;;11.11;99.96;100552.25;1634242;86;21023;-65
2022/02/10 19:30:30;;;;;;;27.48;18.23;;;;;;;11.22;98.25;100556.22;1625371;86;21079;-65
2022/02/10 19:32:59;;;;;;;33.55;20.17;;;;;;;11.26;98.43;100556.17;1628255;86;21572;-67
2022/02/10 19:35:28;;;;;;;31.52;21.15;;;;;;;11.03;100.00;100557.55;1624903;88;21165;-66
2022/02/10 19:37:59;;;;;;;26.95;17.73;;;;;;;11.33;100.00;100553.96;1626023;87;20914;-66
2022/02/10 19:40:27;;;;;;;24.37;15.48;;;;;;;11.29;99.33;100555.31;1628702;88;20994;-68
2022/02/10 19:42:55;;;;;;;28.00;16.55;;;;;;;11.42;94.63;100556.78;1631187;86;21516;-68
2022/02/10 19:45:23;;;;;;;24.37;15.60;;;;;;;11.78;89.34;100548.67;1624326;87;20924;-64
2022/02/10 19:47:50;;;;;;;25.00;15.93;;;;;;;11.39;90.86;100555.83;1635789;86;21142;-66
2022/02/10 19:50:22;;;;;;;21.62;14.35;;;;;;;11.39;89.00;100558.94;1625963;88;21603;-66
2022/02/10 19:52:48;;;;;;;20.02;13.78;;;;;;;10.72;97.00;100553.28;1627418;86;21044;-70
2022/02/10 19:55:19;;;;;;;18.77;13.32;;;;;;;10.25;100.00;100551.67;1618548;86;22169;-67
2022/02/10 19:57:43;;;;;;;20.50;13.78;;;;;;;10.45;100.00;100551.54;1624644;86;21571;-68
2022/02/10 20:00:16;;;;;;;21.70;15.03;;;;;;;10.12;100.00;100553.52;1603750;88;21995;-66
2022/02/10 20:02:41;;;;;;;21.05;14.05;;;;;;;10.16;100.00;100553.98;1627443;86;21570;-68
2022/02/10 20:05:10;;;;;;;22.70;15.80;;;;;;;10.81;100.00;100557.92;1629411;87;20943;-68
2022/02/10 20:07:38;;;;;;;24.05;14.65;;;;;;;10.43;100.00;100552.19;1623569;86;22052;-67
2022/02/10 20:10:05;;;;;;;21.60;15.40;;;;;;;10.40;100.00;100556.94;1619469;88;21495;-71
2022/02/10 20:12:33;;;;;;;20.55;14.18;;;;;;;10.45;99.75;100554.61;1660247;85;21078;-68
2022/02/10 20:15:00;;;;;;;21.85;15.10;;;;;;;10.11;100.00;100557.59;1661115;86;20974;-74
2022/02/10 20:17:27;;;;;;;21.60;15.05;;;;;;;10.30;99.56;100560.26;1641621;86;21025;-69
2022/02/10 20:19:54;;;;;;;24.15;15.60;;;;;;;9.96;100.00;100562.25;1618315;87;21139;-66
2022/02/10 20:22:21;;;;;;;21.57;14.25;;;;;;;10.02;100.00;100561.23;1618578;87;21023;-71
2022/02/10 20:24:47;;;;;;;20.45;14.40;;;;;;;9.75;100.00;100564.12;1659664;86;21207;-67
2022/02/10 20:27:14;;;;;;;21.40;15.30;;;;;;;10.18;100.00;100566.34;1660476;86;21074;-70
2022/02/10 20:29:41;;;;;;;24.23;15.90;;;;;;;10.20;100.00;100563.08;1660157;85;20948;-69
2022/02/10 20:32:08;;;;;;;23.87;15.53;;;;;;;9.96;100.00;100560.11;1619297;88;21599;-68
2022/02/10 20:34:35;;;;;;;21.48;15.32;;;;;;;10.17;100.00;100559.52;1659673;85;20952;-69
2022/02/10 20:37:04;;;;;;;22.13;14.58;;;;;;;10.41;100.00;100567.67;1651406;86;21386;-68
2022/02/10 20:39:30;;;;;;;23.98;16.52;;;;;;;10.35;100.00;100567.89;1660282;86;21011;-68
2022/02/10 20:42:04;;;;;;;23.77;16.15;;;;;;;10.47;100.00;100566.49;1660058;86;21385;-68
2022/02/10 20:44:25;;;;;;;23.95;17.30;;;;;;;10.54;100.00;100564.50;1618061;88;21505;-69
2022/02/10 20:46:52;;;;;;;21.93;15.88;;;;;;;10.61;100.00;100566.73;1660176;85;21376;-68
2022/02/10 20:49:18;;;;;;;21.45;14.23;;;;;;;11.00;100.00;100572.25;1618604;88;21112;-68
2022/02/10 20:51:49;;;;;;;22.80;14.93;;;;;;;11.21;100.00;100565.81;1659523;86;21244;-70
2022/02/10 20:54:15;;;;;;;19.70;13.75;;;;;;;10.86;100.00;100562.91;1619364;88;21035;-71
2022/02/10 20:56:42;;;;;;;20.35;14.50;;;;;;;11.00;100.00;100563.92;1659947;85;20960;-68
2022/02/10 20:59:54;;;;;;;20.72;13.38;;;;;;;11.11;100.00;100560.88;1619303;88;21348;-70
2022/02/10 21:01:37;;;;;;;20.00;14.05;;;;;;;11.12;100.00;100561.69;1612042;88;21755;-68
2022/02/10 21:04:04;;;;;;;21.65;15.13;;;;;;;11.00;100.00;100556.59;1619056;88;21866;-69
2022/02/10 21:06:50;;;;;;;19.75;14.05;;;;;;;11.22;100.00;100558.83;1661219;86;20980;-69
2022/02/10 21:09:13;;;;;;;20.95;15.38;;;;;;;11.28;100.00;100564.11;1655080;84;21041;-69
2022/02/10 21:11:34;;;;;;;20.95;15.13;;;;;;;11.54;100.00;100561.05;1664372;85;21097;-69
2022/02/10 21:14:02;;;;;;;19.65;13.80;;;;;;;11.59;100.00;100557.88;1664915;86;22127;-69
2022/02/10 21:16:30;;;;;;;19.75;13.93;;;;;;;11.54;100.00;100561.55;1665209;86;20888;-70
2022/02/10 21:18:57;;;;;;;21.45;15.10;;;;;;;11.52;100.00;100568.27;1665109;85;21564;-73
2022/02/10 21:21:27;;;;;;;22.62;16.30;;;;;;;11.34;100.00;100566.52;1661253;84;21172;-67
2022/02/10 21:23:58;;;;;;;19.95;14.60;;;;;;;11.41;100.00;100565.61;1665161;85;21093;-67
2022/02/10 21:26:28;;;;;;;23.38;15.65;;;;;;;11.45;100.00;100565.56;1664703;85;22109;-67
2022/02/10 21:28:50;;;;;;;20.77;15.90;;;;;;;11.78;100.00;100557.34;1663729;85;21090;-72
2022/02/10 21:31:17;;;;;;;24.32;15.50;;;;;;;11.82;99.23;100557.75;1664843;85;21348;-72
2022/02/10 21:33:53;;;;;;;23.70;16.20;;;;;;;11.50;100.00;100561.59;1627572;88;21019;-69
2022/02/10 21:38:50;;;;;;;21.60;16.37;;;;;;;11.14;100.00;100561.83;1627562;86;21157;-69
2022/02/10 21:57:21;;;;;;;27.95;18.87;;;;;;;12.18;95.65;100558.59;1623753;88;20999;-69
2022/02/10 21:59:55;;;;;;;34.15;20.05;;;;;;;12.07;95.41;100566.11;1620794;88;20987;-71
2022/02/10 22:03:22;;;;;;;33.15;21.07;;;;;;;12.29;92.55;100562.52;1623144;84;21003;-68
2022/02/10 22:08:29;;;;;;;49.53;26.85;;;;;;;12.70;84.59;100561.88;1664157;84;21041;-68
2022/02/10 22:18:45;;;;;;;34.80;21.48;;;;;;;13.63;70.58;100562.45;1662151;84;21121;-68
2022/02/10 22:21:07;;;;;;;37.85;22.48;;;;;;;13.25;73.52;100561.56;1660270;85;21550;-70
2022/02/10 22:23:41;;;;;;;43.00;23.38;;;;;;;13.01;76.71;100560.69;1620599;84;21349;-67
2022/02/10 22:26:07;;;;;;;42.88;24.05;;;;;;;12.94;77.21;100563.76;1634734;86;20973;-67
2022/02/10 22:28:51;;;;;;;44.75;26.10;;;;;;;13.03;78.19;100561.29;1634969;86;21568;-67
2022/02/10 22:31:27;;;;;;;46.95;25.95;;;;;;;12.57;83.22;100563.06;1649011;86;21174;-68
2022/02/10 22:34:09;;;;;;;49.15;27.90;;;;;;;12.97;80.48;100556.84;1663185;84;21040;-67
2022/02/10 22:36:24;;;;;;;44.93;24.65;;;;;;;13.04;74.52;100552.46;1632517;86;21035;-66
2022/02/10 22:38:54;;;;;;;43.23;24.65;;;;;;;13.03;76.02;100549.52;1658121;86;20960;-72
2022/02/10 22:41:20;;;;;;;46.75;27.07;;;;;;;12.87;76.62;100546.19;1659699;84;22373;-74
2022/02/10 22:43:49;;;;;;;43.08;24.82;;;;;;;12.96;77.81;100556.03;1658792;86;21140;-67
2022/02/10 22:46:16;;;;;;;41.15;25.95;;;;;;;12.72;79.04;100557.75;1660193;84;21127;-68
2022/02/10 22:48:44;;;;;;;37.60;25.05;;;;;;;12.75;81.15;100554.27;1660920;85;20948;-73
2022/02/10 22:51:12;;;;;;;43.98;27.15;;;;;;;12.81;78.99;100557.94;1661671;84;21076;-68
2022/02/10 22:53:39;;;;;;;46.05;29.80;;;;;;;12.65;79.13;100561.14;1635620;86;21310;-68
2022/02/10 22:56:10;;;;;;;35.35;23.77;;;;;;;12.72;79.54;100568.22;1659840;85;21145;-68
2022/02/10 22:58:40;;;;;;;34.73;24.32;;;;;;;12.61;81.49;100565.14;1663986;84;27694;-68
2022/02/10 23:01:08;;;;;;;39.60;25.80;;;;;;;12.66;81.44;100560.14;1633454;86;21013;-66
2022/02/10 23:03:38;;;;;;;37.93;23.98;;;;;;;12.55;80.38;100568.49;1653688;86;21079;-69
2022/02/10 23:06:09;;;;;;;34.53;23.75;;;;;;;12.41;79.52;100568.86;1647989;86;21007;-66
2022/02/10 23:08:36;;;;;;;37.95;24.45;;;;;;;12.19;83.82;100568.54;1650677;86;21165;-72
2022/02/10 23:11:03;;;;;;;35.38;24.20;;;;;;;12.10;86.44;100577.50;1646884;85;21064;-66
2022/02/10 23:13:32;;;;;;;33.28;23.32;;;;;;;12.22;85.48;100576.02;1649039;86;21517;-67
2022/02/10 23:16:02;;;;;;;35.00;23.83;;;;;;;12.37;83.88;100579.37;1651030;86;21019;-66
2022/02/10 23:18:33;;;;;;;34.35;23.83;;;;;;;12.58;81.07;100577.27;1642248;86;21129;-66
2022/02/10 23:21:01;;;;;;;32.23;23.02;;;;;;;12.63;80.16;100574.89;1649914;86;21793;-66
2022/02/10 23:23:30;;;;;;;30.08;22.58;;;;;;;12.39;83.16;100579.22;1650328;86;21269;-66
2022/02/10 23:25:58;;;;;;;38.30;24.70;;;;;;;12.51;83.81;100578.21;1650347;86;21079;-67
2022/02/10 23:28:30;;;;;;;42.23;27.37;;;;;;;12.20;86.10;100571.95;1650819;86;21020;-66
2022/02/10 23:30:59;;;;;;;58.15;35.68;;;;;;;12.34;84.67;100571.91;1649531;86;21510;-67
2022/02/10 23:33:28;;;;;;;100.95;57.83;;;;;;;12.31;85.56;100578.00;1651187;86;22260;-66
2022/02/10 23:41:47;;;;;;;43.78;27.87;;;;;;;12.83;79.50;100571.12;1643309;86;21530;-66
2022/02/10 23:43:46;;;;;;;34.48;23.75;;;;;;;12.73;80.15;100573.75;1646101;86;21449;-66
2022/02/10 23:46:13;;;;;;;33.40;22.73;;;;;;;12.82;78.85;100582.59;1649126;86;21214;-72
2022/02/10 23:48:40;;;;;;;33.08;23.50;;;;;;;12.86;78.85;100579.09;1626069;86;21067;-67
2022/02/10 23:51:07;;;;;;;32.23;21.90;;;;;;;12.73;79.79;100587.66;1650859;86;22442;-67
2022/02/10 23:53:34;;;;;;;32.53;23.15;;;;;;;12.64;80.78;100584.34;1642955;87;21554;-67
2022/02/10 23:56:05;;;;;;;32.53;21.87;;;;;;;12.62;80.85;100589.48;1641502;86;21039;-72
2022/02/10 23:58:46;;;;;;;31.70;22.07;;;;;;;12.61;82.55;100591.76;1622388;88;39192;-69
